Xapuri, Brazil
Current Conditions -  °F | °C
As of 9:00 AM on Monday 20 Oct 2014 (Local Time) from SBRB Reporting Station
Clear Clear  
Wind Chill: 77°   Ceiling: Unl
Heat Index: 78°   Visibility: 6mi
Dew Point: 72°   Wind: 2mph
Humidity: 83%   Direction: 230°SW
Pressure: 29.97"   Gusts: NA
Location:  10.65°S, 68.5°W
Report Text: SBRB 201300Z 23002KT CAVOK 25/22 Q1015
Loading
Personal Weather Stations






























Interactive Weather Map
Tropical Storm Tracking
New forecast layout! Learn more

10-Day Weather Forecast

Advertisements
Track Severe Weather on mobile